createdAt,value
2018-12-05T00:01:36.856Z,16.02
2018-12-05T00:07:31.870Z,27.97
2018-12-05T00:13:26.871Z,32.12
2018-12-05T00:19:21.882Z,30.75
2018-12-05T00:25:16.889Z,34.68
2018-12-05T00:31:11.890Z,33.79
2018-12-05T00:37:06.902Z,32.23
2018-12-05T00:43:01.887Z,31.15
2018-12-05T00:48:56.878Z,27.72
2018-12-05T00:54:51.936Z,26.27
2018-12-05T01:00:46.893Z,27.87
2018-12-05T01:06:41.889Z,27.13
2018-12-05T01:12:36.903Z,27.85
2018-12-05T01:18:31.903Z,26.25
2018-12-05T01:24:26.905Z,26.53
2018-12-05T01:30:21.907Z,22.31
2018-12-05T01:36:16.905Z,22.48
2018-12-05T01:42:11.921Z,25.89
2018-12-05T01:48:06.922Z,21.78
2018-12-05T01:54:01.944Z,21.96
2018-12-05T01:59:56.925Z,20.35
2018-12-05T02:05:51.920Z,20.08
2018-12-05T02:11:46.940Z,21.81
2018-12-05T02:17:41.945Z,20.85
2018-12-05T02:23:36.963Z,18.07
2018-12-05T02:29:31.946Z,18.54
2018-12-05T02:35:26.966Z,18.77
2018-12-05T02:41:21.940Z,21.34
2018-12-05T02:47:16.958Z,20.09
2018-12-05T02:53:11.962Z,20.52
2018-12-05T02:59:06.969Z,16.19
2018-12-05T03:05:02.025Z,15.92
2018-12-05T03:10:56.951Z,18.45
2018-12-05T03:16:51.959Z,17.13
2018-12-05T03:22:46.950Z,19.7
2018-12-05T03:28:41.995Z,18.6
2018-12-05T03:34:36.987Z,16.95
2018-12-05T03:40:31.970Z,14.66
2018-12-05T03:46:26.973Z,14.3
2018-12-05T03:52:22.004Z,14.41
2018-12-05T03:58:16.970Z,17
2018-12-05T04:04:11.980Z,14.16
2018-12-05T04:10:07.027Z,16.07
2018-12-05T04:16:02.005Z,14.03
2018-12-05T04:21:57.002Z,14.87
2018-12-05T04:27:52.003Z,12.5
2018-12-05T04:33:47.015Z,11.11
2018-12-05T04:39:42.007Z,11.17
2018-12-05T04:45:37.045Z,15.08
2018-12-05T04:51:32.061Z,14.2
2018-12-05T04:57:27.034Z,15.26
2018-12-05T05:03:22.027Z,14.93
2018-12-05T05:09:17.053Z,10.53
2018-12-05T05:15:12.122Z,10.3
2018-12-05T05:21:07.067Z,9.5
2018-12-05T05:27:02.083Z,11.21
2018-12-05T05:32:57.035Z,9.87
2018-12-05T05:38:52.024Z,9.82
2018-12-05T05:44:47.047Z,11.43
2018-12-05T05:50:42.084Z,11.89
2018-12-05T05:56:37.047Z,11.96
2018-12-05T06:02:32.065Z,11.2
2018-12-05T06:08:27.053Z,12.24
2018-12-05T06:14:22.081Z,12.88
2018-12-05T06:20:17.071Z,11.46
2018-12-05T06:26:12.062Z,9.65
2018-12-05T06:32:07.087Z,8.89
2018-12-05T06:38:02.066Z,11.85
2018-12-05T06:43:57.103Z,10.58
2018-12-05T06:49:52.080Z,11.51
2018-12-05T06:55:47.070Z,10.58
2018-12-05T07:01:42.066Z,11.96
2018-12-05T07:07:37.081Z,11.75
2018-12-05T07:13:32.100Z,9.32
2018-12-05T07:19:27.088Z,9.99
2018-12-05T07:25:22.220Z,10.65
2018-12-05T07:31:17.102Z,14.12
2018-12-05T07:37:12.101Z,16.13
2018-12-05T07:43:07.120Z,13.55
2018-12-05T07:49:02.134Z,14.55
2018-12-05T07:54:57.096Z,18.91
2018-12-05T08:00:52.110Z,18.72
2018-12-05T08:06:47.114Z,21.12
2018-12-05T08:12:42.118Z,21.41
2018-12-05T08:18:37.133Z,20.71
2018-12-05T08:24:32.138Z,19.03
2018-12-05T08:30:27.126Z,16.25
2018-12-05T08:36:22.148Z,20.62
2018-12-05T08:42:17.184Z,24.78
2018-12-05T08:48:12.231Z,25.42
2018-12-05T08:54:07.144Z,24.69
2018-12-05T09:00:02.162Z,23.51
2018-12-05T09:05:57.184Z,21.94
2018-12-05T09:11:52.277Z,22.24
2018-12-05T09:17:47.155Z,22.89
2018-12-05T09:23:42.155Z,21.5
2018-12-05T09:29:37.208Z,20.61
2018-12-05T09:35:32.160Z,20.55
2018-12-05T09:41:27.151Z,20.79
2018-12-05T09:47:22.231Z,19.46
2018-12-05T09:53:17.215Z,19.36
2018-12-05T09:59:12.215Z,19.9
2018-12-05T10:05:07.171Z,20.29
2018-12-05T10:11:02.219Z,20.01
2018-12-05T10:16:57.174Z,17.53
2018-12-05T10:22:52.207Z,19.69
2018-12-05T10:28:47.176Z,19.97
2018-12-05T10:34:42.260Z,22.49
2018-12-05T10:40:37.223Z,22.41
2018-12-05T10:46:32.213Z,22.87
2018-12-05T10:52:27.203Z,24.7
2018-12-05T10:58:22.203Z,22.23
2018-12-05T11:04:17.204Z,24.61
2018-12-05T11:10:12.253Z,23.9
2018-12-05T11:16:07.216Z,26.16
2018-12-05T11:22:02.304Z,33.6
2018-12-05T11:27:57.219Z,26.34
2018-12-05T11:33:52.223Z,26.54
2018-12-05T11:39:47.239Z,25.42
2018-12-05T11:45:42.222Z,26.21
2018-12-05T11:51:37.226Z,29.41
2018-12-05T11:57:32.283Z,31.88
2018-12-05T12:03:27.226Z,31.77
2018-12-05T12:09:22.260Z,30.54
2018-12-05T12:15:17.251Z,31.25
2018-12-05T12:21:12.283Z,27.86
2018-12-05T12:27:07.252Z,30.26
2018-12-05T12:33:02.842Z,31.83
2018-12-05T12:38:57.274Z,34.36
2018-12-05T12:44:52.276Z,33.22
2018-12-05T12:50:47.278Z,31.11
2018-12-05T12:56:42.299Z,31
2018-12-05T13:02:37.280Z,29.27
2018-12-05T13:08:32.288Z,29.87
2018-12-05T13:14:27.324Z,29.6
2018-12-05T13:20:22.296Z,28.49
2018-12-05T13:26:17.303Z,26.8
2018-12-05T13:32:12.276Z,24.53
2018-12-05T13:38:07.282Z,26.8
2018-12-05T13:44:02.331Z,24.91
2018-12-05T13:49:57.305Z,28.23
2018-12-05T13:55:52.312Z,26.63
2018-12-05T14:01:47.321Z,26.92
2018-12-05T14:07:42.343Z,24.52
2018-12-05T14:13:37.318Z,24.01
2018-12-05T14:19:32.328Z,22.93
2018-12-05T14:25:27.323Z,23.2
2018-12-05T14:31:22.323Z,21.06
2018-12-05T14:37:17.399Z,21.16
2018-12-05T14:43:12.341Z,23.09
2018-12-05T14:49:07.350Z,23.63
2018-12-05T14:55:02.352Z,23.19
2018-12-05T15:00:57.340Z,22.36
2018-12-05T15:06:52.366Z,24.18
2018-12-05T15:12:47.350Z,23.67
2018-12-05T15:18:42.370Z,24.16
2018-12-05T15:24:37.352Z,26.73
2018-12-05T15:30:32.426Z,24.24
2018-12-05T15:36:27.387Z,22.9
2018-12-05T15:42:22.385Z,21.57
2018-12-05T15:48:17.398Z,21.4
2018-12-05T15:54:12.386Z,25.94
2018-12-05T16:00:07.405Z,22.61
2018-12-05T16:06:02.401Z,18.16
2018-12-05T16:11:57.395Z,16.61
2018-12-05T16:17:52.446Z,16.65
2018-12-05T16:23:47.452Z,16.21
2018-12-05T16:29:42.403Z,16.98
2018-12-05T16:35:37.406Z,14.81
2018-12-05T16:41:32.414Z,11.44
2018-12-05T16:47:27.441Z,13.51
2018-12-05T16:53:22.476Z,12.29
2018-12-05T16:59:17.476Z,12.3
2018-12-05T17:05:12.439Z,9.74
2018-12-05T17:11:07.442Z,9.68
2018-12-05T17:17:02.495Z,8.75
2018-12-05T17:22:57.465Z,9.47
2018-12-05T17:28:52.463Z,8.19
2018-12-05T17:34:47.450Z,8.38
2018-12-05T17:40:42.451Z,6.36
2018-12-05T17:46:37.446Z,11.5
2018-12-05T17:52:32.455Z,8.75
2018-12-05T17:58:27.439Z,8.1
2018-12-05T18:04:22.462Z,8.74
2018-12-05T18:10:17.486Z,13
2018-12-05T18:16:12.542Z,13.64
2018-12-05T18:22:07.476Z,15.39
2018-12-05T18:28:02.469Z,13.53
2018-12-05T18:33:57.501Z,18.65
2018-12-05T18:39:52.537Z,15.2
2018-12-05T18:45:47.486Z,17.05
2018-12-05T18:51:42.490Z,10.15
2018-12-05T18:57:37.518Z,10.36
2018-12-05T19:03:32.518Z,11.25
2018-12-05T19:09:27.505Z,13.76
2018-12-05T19:15:22.525Z,10.87
2018-12-05T19:21:17.500Z,10.95
2018-12-05T19:27:12.535Z,12.03
2018-12-05T19:33:07.536Z,11.23
2018-12-05T19:39:02.536Z,10.05
2018-12-05T19:44:57.507Z,10.72
2018-12-05T19:50:52.519Z,8.24
2018-12-05T19:56:47.527Z,6.97
2018-12-05T20:02:42.527Z,7.01
2018-12-05T20:08:37.532Z,5.56
2018-12-05T20:14:32.528Z,13.32
2018-12-05T20:20:27.536Z,13.6
2018-12-05T20:26:22.530Z,7.67
2018-12-05T20:32:17.638Z,9.67
2018-12-05T20:38:12.557Z,9.52
2018-12-05T20:44:07.554Z,6.96
2018-12-05T20:50:02.597Z,7.77
2018-12-05T20:55:57.540Z,6.5
2018-12-05T21:01:52.550Z,8.61
2018-12-05T21:07:47.564Z,12.34
2018-12-05T21:13:42.572Z,9.44
2018-12-05T21:19:37.556Z,18.64
2018-12-05T21:25:32.600Z,12.56
2018-12-05T21:31:27.567Z,16.09
2018-12-05T21:37:22.572Z,11.11
2018-12-05T21:43:17.579Z,11.05
2018-12-05T21:49:12.587Z,14.41
2018-12-05T21:55:07.636Z,21.72
2018-12-05T22:01:02.633Z,17.53
2018-12-05T22:06:57.607Z,15.4
2018-12-05T22:12:52.596Z,15.33
2018-12-05T22:18:47.632Z,17.91
2018-12-05T22:24:42.637Z,16.33
2018-12-05T22:30:37.595Z,14.77
2018-12-05T22:36:32.664Z,15.33
2018-12-05T22:42:27.617Z,14.07
2018-12-05T22:48:22.619Z,15.55
2018-12-05T22:54:17.655Z,13.84
2018-12-05T23:00:12.622Z,16.71
2018-12-05T23:06:07.656Z,29.79
2018-12-05T23:12:02.631Z,27.31
2018-12-05T23:17:57.665Z,27.61
2018-12-05T23:23:52.643Z,25.36
2018-12-05T23:29:47.669Z,24.12
2018-12-05T23:35:42.634Z,25.33
2018-12-05T23:41:39.002Z,26.34
2018-12-05T23:47:32.632Z,26.1
2018-12-05T23:53:27.678Z,25.2
2018-12-05T23:59:22.650Z,24.04
